createdAt,value
2019-04-10T00:05:27.712Z,50.03
2019-04-10T00:11:34.577Z,50.28
2019-04-10T00:17:40.921Z,50.61
2019-04-10T00:23:47.166Z,51.18
2019-04-10T00:29:53.034Z,51.60
2019-04-10T00:35:59.513Z,51.90
2019-04-10T00:42:05.492Z,52.14
2019-04-10T00:48:11.977Z,52.34
2019-04-10T00:54:18.254Z,52.58
2019-04-10T01:00:24.038Z,52.51
2019-04-10T01:06:30.405Z,52.76
2019-04-10T01:12:36.380Z,53.26
2019-04-10T01:18:42.227Z,53.13
2019-04-10T01:24:48.074Z,53.16
2019-04-10T01:30:54.946Z,53.20
2019-04-10T01:37:01.152Z,53.35
2019-04-10T01:43:12.937Z,53.19
2019-04-10T01:49:15.652Z,53.42
2019-04-10T01:55:25.763Z,53.74
2019-04-10T02:01:33.179Z,53.72
2019-04-10T02:07:39.013Z,54.01
2019-04-10T02:13:44.716Z,54.11
2019-04-10T02:19:50.748Z,54.24
2019-04-10T02:25:56.966Z,54.46
2019-04-10T02:32:04.131Z,54.44
2019-04-10T02:38:26.138Z,54.42
2019-04-10T02:44:20.179Z,54.46
2019-04-10T02:50:27.370Z,54.64
2019-04-10T02:56:33.632Z,54.51
2019-04-10T03:02:41.590Z,54.80
2019-04-10T03:09:03.451Z,54.83
2019-04-10T03:14:55.124Z,55.18
2019-04-10T03:21:01.176Z,55.56
2019-04-10T03:27:08.709Z,55.65
2019-04-10T03:33:33.774Z,55.87
2019-04-10T03:39:40.558Z,55.95
2019-04-10T03:45:46.731Z,56.24
2019-04-10T03:51:52.753Z,56.33
2019-04-10T03:57:58.738Z,56.46
2019-04-10T04:04:04.980Z,57.08
2019-04-10T04:10:11.330Z,57.00
2019-04-10T04:16:17.381Z,57.06
2019-04-10T04:22:23.167Z,57.29
2019-04-10T04:28:29.820Z,57.36
2019-04-10T04:34:36.714Z,57.71
2019-04-10T04:40:42.521Z,57.81
2019-04-10T04:46:48.362Z,57.85
2019-04-10T04:52:54.208Z,58.21
2019-04-10T04:58:59.989Z,58.26
2019-04-10T05:05:06.637Z,58.31
2019-04-10T05:11:13.825Z,58.39
2019-04-10T05:17:20.008Z,58.49
2019-04-10T05:23:26.679Z,58.11
2019-04-10T05:29:32.658Z,57.86
2019-04-10T05:35:39.774Z,57.79
2019-04-10T05:41:46.937Z,57.31
2019-04-10T05:47:52.878Z,57.45
2019-04-10T05:54:00.064Z,56.85
2019-04-10T06:00:08.404Z,56.75
2019-04-10T06:06:14.591Z,56.74
2019-04-10T06:12:20.418Z,56.25
2019-04-10T06:18:27.156Z,56.17
2019-04-10T06:24:33.095Z,55.94
2019-04-10T06:30:39.801Z,55.75
2019-04-10T06:36:45.950Z,55.26
2019-04-10T06:42:54.897Z,55.05
2019-04-10T06:49:00.419Z,54.71
2019-04-10T06:55:06.685Z,54.11
2019-04-10T07:01:14.681Z,54.01
2019-04-10T07:07:23.870Z,53.86
2019-04-10T07:13:28.695Z,53.09
2019-04-10T07:19:34.530Z,52.81
2019-04-10T07:25:44.617Z,52.47
2019-04-10T07:31:48.785Z,52.73
2019-04-10T07:37:56.966Z,52.45
2019-04-10T07:44:02.188Z,52.13
2019-04-10T07:50:10.329Z,51.71
2019-04-10T07:56:20.388Z,51.78
2019-04-10T08:02:24.096Z,51.38
2019-04-10T08:08:30.078Z,50.87
2019-04-10T08:14:35.947Z,51.01
2019-04-10T08:20:42.502Z,50.62
2019-04-10T08:26:49.234Z,50.69
2019-04-10T08:33:00.713Z,49.90
2019-04-10T08:39:02.901Z,50.23
2019-04-10T08:45:09.224Z,50.03
2019-04-10T08:51:15.650Z,49.82
2019-04-10T08:57:21.548Z,49.41
2019-04-10T09:03:27.386Z,48.91
2019-04-10T09:09:33.919Z,48.86
2019-04-10T09:15:40.277Z,49.03
2019-04-10T09:21:46.256Z,48.12
2019-04-10T09:27:52.071Z,47.40
2019-04-10T09:33:59.091Z,47.26
2019-04-10T09:40:05.765Z,46.76
2019-04-10T09:46:12.638Z,45.69
2019-04-10T09:52:18.785Z,46.29
2019-04-10T09:58:24.629Z,45.42
2019-04-10T10:04:31.274Z,45.51
2019-04-10T10:10:38.392Z,44.89
2019-04-10T10:16:46.275Z,44.95
2019-04-10T10:22:52.127Z,44.74
2019-04-10T10:28:58.586Z,43.59
2019-04-10T10:35:05.069Z,43.83
2019-04-10T10:41:10.944Z,43.56
2019-04-10T10:47:17.068Z,43.70
2019-04-10T10:53:24.066Z,43.12
2019-04-10T10:59:29.896Z,43.11
2019-04-10T11:05:37.190Z,43.73
2019-04-10T11:11:43.419Z,43.01
2019-04-10T11:17:50.000Z,43.35
2019-04-10T11:23:56.150Z,43.04
2019-04-10T11:30:03.487Z,41.61
2019-04-10T11:36:09.891Z,42.23
2019-04-10T11:42:16.440Z,41.36
2019-04-10T11:48:25.637Z,40.92
2019-04-10T11:54:35.471Z,40.29
2019-04-10T12:00:50.453Z,40.50
2019-04-10T12:06:54.058Z,39.46
2019-04-10T12:12:59.885Z,39.86
2019-04-10T12:19:06.696Z,39.48
2019-04-10T12:25:13.047Z,39.56
2019-04-10T12:31:19.734Z,38.94
2019-04-10T12:37:25.646Z,39.69
2019-04-10T12:43:32.567Z,39.61
2019-04-10T12:49:39.409Z,39.09
2019-04-10T12:55:47.193Z,37.86
2019-04-10T13:01:53.987Z,37.63
2019-04-10T13:08:12.897Z,37.73
2019-04-10T13:14:08.574Z,37.75
2019-04-10T13:20:16.079Z,35.53
2019-04-10T13:26:21.911Z,36.73
2019-04-10T13:32:27.877Z,36.84
2019-04-10T13:38:35.440Z,36.11
2019-04-10T13:44:42.539Z,36.09
2019-04-10T13:50:48.752Z,35.86
2019-04-10T13:56:55.223Z,36.52
2019-04-10T14:03:01.797Z,36.33
2019-04-10T14:09:31.273Z,36.22
2019-04-10T14:15:27.389Z,35.98
2019-04-10T14:21:33.275Z,35.47
2019-04-10T14:27:40.905Z,35.72
2019-04-10T14:33:47.183Z,36.38
2019-04-10T14:39:53.650Z,35.06
2019-04-10T14:45:59.741Z,34.80
2019-04-10T14:52:05.770Z,33.77
2019-04-10T14:58:21.454Z,32.92
2019-04-10T15:04:19.953Z,32.29
2019-04-10T15:10:25.737Z,32.43
2019-04-10T15:16:31.876Z,32.69
2019-04-10T15:22:37.903Z,31.90
2019-04-10T15:28:43.850Z,31.37
2019-04-10T15:34:49.741Z,31.35
2019-04-10T15:40:56.696Z,30.20
2019-04-10T15:47:13.437Z,31.03
2019-04-10T15:53:11.723Z,30.74
2019-04-10T15:59:19.882Z,30.51
2019-04-10T16:05:26.189Z,30.42
2019-04-10T16:11:50.157Z,29.40
2019-04-10T16:18:05.266Z,31.01
2019-04-10T16:24:12.295Z,31.72
2019-04-10T16:30:22.015Z,32.57
2019-04-10T16:36:27.981Z,33.04
2019-04-10T16:42:34.830Z,32.46
2019-04-10T16:48:40.636Z,32.93
2019-04-10T16:54:46.567Z,33.78
2019-04-10T17:00:53.768Z,34.27
2019-04-10T17:07:00.856Z,34.26
2019-04-10T17:13:08.807Z,34.56
2019-04-10T17:19:15.976Z,35.39
2019-04-10T17:25:22.186Z,35.26
2019-04-10T17:31:30.813Z,34.94
2019-04-10T17:44:05.622Z,36.34
2019-04-10T17:50:14.141Z,36.57
2019-04-10T17:56:20.162Z,36.39
2019-04-10T18:02:26.355Z,37.11
2019-04-10T18:08:32.753Z,37.49
2019-04-10T18:14:40.888Z,38.01
2019-04-10T18:20:49.518Z,38.50
2019-04-10T18:26:57.873Z,38.56
2019-04-10T18:33:05.075Z,39.06
2019-04-10T18:39:15.714Z,38.78
2019-04-10T18:45:24.198Z,39.25
2019-04-10T18:51:30.263Z,39.21
2019-04-10T18:57:36.275Z,39.17
2019-04-10T19:04:07.785Z,39.07
2019-04-10T19:10:14.327Z,39.23
2019-04-10T19:16:21.480Z,39.80
2019-04-10T19:22:28.985Z,40.05
2019-04-10T19:28:38.540Z,40.09
2019-04-10T19:34:44.036Z,39.35
2019-04-10T19:40:50.079Z,39.66
2019-04-10T19:46:55.988Z,39.82
2019-04-10T19:53:02.650Z,39.67
2019-04-10T19:59:08.870Z,39.60
2019-04-10T20:05:16.961Z,40.10
2019-04-10T20:11:33.817Z,40.16
2019-04-10T20:17:33.323Z,40.48
2019-04-10T20:23:40.392Z,40.64
2019-04-10T20:29:47.731Z,41.14
2019-04-10T20:35:54.353Z,41.76
2019-04-10T20:42:02.514Z,41.70
2019-04-10T20:48:08.988Z,41.95
2019-04-10T20:54:15.224Z,41.91
2019-04-10T21:00:30.073Z,41.86
2019-04-10T21:06:40.877Z,42.34
2019-04-10T21:12:46.494Z,42.41
2019-04-10T21:18:53.892Z,42.40
2019-04-10T21:25:00.993Z,42.30
2019-04-10T21:31:25.525Z,42.44
2019-04-10T21:37:34.655Z,42.30
2019-04-10T21:43:42.969Z,42.77
2019-04-10T21:49:48.878Z,42.83
2019-04-10T21:55:55.721Z,42.81
2019-04-10T22:02:02.723Z,42.95
2019-04-10T22:08:27.507Z,43.08
2019-04-10T22:14:33.546Z,43.16
2019-04-10T22:20:39.629Z,43.13
2019-04-10T22:26:45.442Z,43.34
2019-04-10T22:32:51.887Z,43.39
2019-04-10T22:38:58.378Z,43.50
2019-04-10T22:45:04.494Z,43.71
2019-04-10T22:51:11.179Z,43.72
2019-04-10T22:57:17.288Z,44.04
2019-04-10T23:03:43.156Z,44.33
2019-04-10T23:09:49.116Z,44.43
2019-04-10T23:15:55.714Z,44.86
2019-04-10T23:22:01.511Z,45.01
2019-04-10T23:28:09.506Z,45.57
2019-04-10T23:34:15.395Z,45.68
2019-04-10T23:40:23.011Z,46.08
2019-04-10T23:46:28.832Z,46.43
2019-04-10T23:52:34.558Z,46.87
2019-04-10T23:58:40.549Z,47.25
